Dinteldijk — PHMJ — position and weather

sailwx.info

Track history (hours):
 
Tides and Currents Weather Stations Pressure Air Temp Water Temp Dewpoint Dewpoint Depression Visibility Wind Speed Wind Dir Waves Ship Positions

Dinteldijk

Last reported at 2018-May-28 01:28 UTC. Time now 2018-May-28 01:39 UTC.
Position N 43°36' W 005°42'.

Length 90 m; draft 3.8 m.

Type: Cargo ship. MMSI: 245044000.

Date/timePositionNaut miles runAvg speedWind from/ knotsBaromVisibWave heightAir tempDewpointWater temp
2018-May-28 01:28N 43°36' W 005°42'0 0.0
2018-May-27 19:04N 43°36' W 005°42'0 0.0
2018-May-27 18:52N 43°36' W 005°42'0 0.0
2018-May-27 18:28N 43°36' W 005°42'0 0.0
2018-May-27 17:52N 43°36' W 005°42'0 0.0
2018-May-27 17:28N 43°36' W 005°42'0 0.0
2018-May-27 12:16N 43°36' W 005°42'0 0.0
2018-May-27 11:58N 43°36' W 005°42'0 0.1
2018-May-27 11:28N 43°36' W 005°42'0 0.0
2018-May-27 10:58N 43°36' W 005°42'0 0.0
2018-May-27 10:28N 43°36' W 005°42'0 0.0
2018-May-27 09:58N 43°36' W 005°42'0 0.0
2018-May-27 09:22N 43°36' W 005°42'0 0.0
2018-May-27 08:04N 43°36' W 005°42'0 0.0
2018-May-27 07:52N 43°36' W 005°42'0 0.1
2018-May-27 07:28N 43°36' W 005°42'0 0.0
2018-May-27 06:58N 43°36' W 005°42'0 0.0
2018-May-27 06:16N 43°36' W 005°42'0 0.0
2018-May-27 05:52N 43°36' W 005°42'0 0.0
2018-May-27 05:28N 43°36' W 005°42'0 0.0
2018-May-27 04:22N 43°36' W 005°42'0 0.0
2018-May-27 03:58N 43°36' W 005°42'0 0.1
2018-May-27 03:10N 43°36' W 005°42'0 0.0
2018-May-27 02:58N 43°36' W 005°42'0 0.0
2018-May-27 01:34N 43°36' W 005°42'0 0.0
2018-May-27 01:22N 43°36' W 005°42'0 0.0
2018-May-27 00:52N 43°36' W 005°42'0 0.0
2018-May-26 16:12N 43°36' W 005°42'0 0.1
2018-May-26 15:48N 43°36' W 005°42'0 0.0
2018-May-26 13:12N 43°36' W 005°42'0 0.1
2018-May-26 13:00N 43°36' W 005°42'0 0.0
2018-May-26 12:30N 43°36' W 005°42'0 0.0
2018-May-26 09:18N 43°36' W 005°42'0 0.1
2018-May-26 09:00N 43°36' W 005°42'0 0.0
2018-May-26 07:18N 43°36' W 005°42'0 0.0
2018-May-26 05:18N 43°36' W 005°42'0 0.0
2018-May-26 04:42N 43°36' W 005°42'0 0.1
2018-May-26 04:30N 43°36' W 005°42'0 0.0
2018-May-26 04:00N 43°36' W 005°42'0 0.0
2018-May-26 02:12N 43°36' W 005°42'0 0.0
2018-May-26 02:00N 43°36' W 005°42'0 0.0
2018-May-25 21:06N 43°36' W 005°42'0 0.0
2018-May-25 20:42N 43°36' W 005°42'0 0.0
2018-May-25 18:24N 43°36' W 005°42'0 0.0
2018-May-25 18:00N 43°36' W 005°42'0 0.0
2018-May-25 13:30N 43°36' W 005°42'0 0.0
2018-May-25 12:48N 43°36' W 005°42'0 0.0
2018-May-25 12:18N 43°36' W 005°42'0 0.0
2018-May-25 12:00N 43°36' W 005°42'0 0.1
2018-May-25 11:30N 43°36' W 005°42'0 0.0
2018-May-25 08:30N 43°36' W 005°42'0 0.4
2018-May-25 08:00N 43°36' W 005°42'5 9.5
2018-May-25 07:30N 43°40' W 005°40'36610.9
2018-May-23 21:54N 49°44' W 006°45'2710.3
2018-May-23 19:16N 50°11' W 006°44'311.7
2018-May-23 19:00N 50°14' W 006°45'3211.5
2018-May-23 16:13N 50°45' W 006°56'311.8
2018-May-23 16:00N 50°47' W 006°56'611.7
2018-May-23 15:30N 50°53' W 006°58'510.5
2018-May-23 15:00N 50°58' W 006°59'4 7.2
2018-May-23 14:30N 51°01' W 007°03'4 7.5
2018-May-23 14:00N 51°03' W 007°08'4 7.6
2018-May-23 13:30N 51°06' W 007°12'4 7.5
2018-May-23 13:00N 51°09' W 007°16'4 7.6
2018-May-23 12:30N 51°11' W 007°20'4 7.6
2018-May-23 12:00N 51°14' W 007°25'4 7.5
2018-May-23 11:30N 51°17' W 007°29'4 7.4
2018-May-23 11:00N 51°19' W 007°34'4 7.4
2018-May-23 10:30N 51°22' W 007°38'4 7.5
2018-May-23 10:00N 51°24' W 007°42'4 7.4
2018-May-23 09:30N 51°27' W 007°46'4 7.6
2018-May-23 09:00N 51°30' W 007°51'4 8.0
2018-May-23 08:30N 51°33' W 007°55'5 9.0
2018-May-23 08:00N 51°36' W 007°60'510.5
2018-May-23 07:30N 51°40' W 008°06'5 9.1
2018-May-23 07:00N 51°43' W 008°11'510.5
2018-May-23 06:30N 51°47' W 008°16'4 7.4
2018-May-23 06:00N 51°50' W 008°19'5 9.9
2018-May-23 05:30N 51°54' W 008°24'2 4.1
2018-May-23 05:00N 51°54' W 008°27'0 0.0
2018-May-23 04:29N 51°54' W 008°27'0 0.0
2018-May-23 03:59N 51°54' W 008°27'0 0.0
2018-May-23 03:29N 51°54' W 008°27'0 0.0
2018-May-23 02:59N 51°54' W 008°27'0 0.0
2018-May-23 02:29N 51°54' W 008°27'0 0.0
2018-May-23 01:59N 51°54' W 008°27'0 0.0
2018-May-23 01:29N 51°54' W 008°27'0 0.0
2018-May-23 00:59N 51°54' W 008°27'0 0.0
2018-May-23 00:23N 51°54' W 008°27'0 0.0
2018-May-22 23:59N 51°54' W 008°27'0 0.0
2018-May-22 23:29N 51°54' W 008°27'0 0.0
2018-May-22 22:59N 51°54' W 008°27'0 0.0
2018-May-22 22:29N 51°54' W 008°27'0 0.0
2018-May-22 21:59N 51°54' W 008°27'0 0.0
2018-May-22 21:29N 51°54' W 008°27'0 0.0
2018-May-22 20:59N 51°54' W 008°27'0 0.0
2018-May-22 20:29N 51°54' W 008°27'0 0.0
2018-May-22 19:59N 51°54' W 008°27'0 0.0
2018-May-22 19:29N 51°54' W 008°27'0 0.0
2018-May-22 18:59N 51°54' W 008°27'0 0.0
2018-May-22 18:26N 51°54' W 008°27'0 0.0
2018-May-22 17:59N 51°54' W 008°27'0 0.0
2018-May-22 17:29N 51°54' W 008°27'0 0.0
2018-May-22 16:59N 51°54' W 008°27'0 0.0
2018-May-22 16:29N 51°54' W 008°27'0 0.0
2018-May-22 15:59N 51°54' W 008°27'0 0.0
2018-May-22 15:29N 51°54' W 008°27'0 0.0
2018-May-22 14:53N 51°54' W 008°27'0 0.0
2018-May-22 14:29N 51°54' W 008°27'0 0.0
2018-May-22 13:59N 51°54' W 008°27'0 0.0
2018-May-22 13:29N 51°54' W 008°27'0 0.0
2018-May-22 12:59N 51°54' W 008°27'0 0.0
2018-May-22 12:26N 51°54' W 008°27'0 0.0
2018-May-22 11:59N 51°54' W 008°27'0 0.0
2018-May-22 11:29N 51°54' W 008°27'0 0.0
2018-May-22 10:53N 51°54' W 008°27'0 0.0
2018-May-22 10:29N 51°54' W 008°27'0 0.0
2018-May-22 09:56N 51°54' W 008°27'0 0.0
2018-May-22 09:29N 51°54' W 008°27'0 0.0
2018-May-22 08:59N 51°54' W 008°27'0 0.0
2018-May-22 08:29N 51°54' W 008°27'0 0.0
2018-May-22 07:59N 51°54' W 008°27'0 0.0
2018-May-22 07:29N 51°54' W 008°27'0 0.0
2018-May-22 06:59N 51°54' W 008°27'0 0.0
2018-May-22 06:29N 51°54' W 008°27'0 0.0
2018-May-22 05:59N 51°54' W 008°27'0 0.0
2018-May-22 05:29N 51°54' W 008°27'0 0.0
2018-May-22 04:59N 51°54' W 008°27'0 0.0
2018-May-22 04:29N 51°54' W 008°27'0 0.0
2018-May-22 03:59N 51°54' W 008°27'0 0.0
2018-May-22 03:29N 51°54' W 008°27'0 0.0
2018-May-22 02:59N 51°54' W 008°27'0 0.0
2018-May-22 02:29N 51°54' W 008°27'0 0.0
2018-May-22 01:59N 51°54' W 008°27'0 0.0
2018-May-22 01:29N 51°54' W 008°27'0 0.0
2018-May-22 00:59N 51°54' W 008°27'0 0.0
2018-May-22 00:29N 51°54' W 008°27'0 0.0
2018-May-21 23:59N 51°54' W 008°27'0 0.0
2018-May-21 23:29N 51°54' W 008°27'0 0.0
2018-May-21 22:59N 51°54' W 008°27'0 0.0
2018-May-21 22:29N 51°54' W 008°27'0 0.0
2018-May-21 21:59N 51°54' W 008°27'0 0.0
2018-May-21 21:29N 51°54' W 008°27'0 0.0
2018-May-21 20:59N 51°54' W 008°27'0 0.0
2018-May-21 20:29N 51°54' W 008°27'0 0.0
2018-May-21 19:59N 51°54' W 008°27'0 0.0
2018-May-21 19:29N 51°54' W 008°27'0 0.0
2018-May-21 18:59N 51°54' W 008°27'0 0.0
2018-May-21 18:29N 51°54' W 008°27'0 0.0
2018-May-21 17:59N 51°54' W 008°27'0 0.0
2018-May-21 17:29N 51°54' W 008°27'0 0.0
2018-May-21 16:59N 51°54' W 008°27'0 0.0
2018-May-21 16:29N 51°54' W 008°27'0 0.0
2018-May-21 15:59N 51°54' W 008°27'0 0.0
2018-May-21 15:29N 51°54' W 008°27'0 0.0
2018-May-21 14:59N 51°54' W 008°27'0 0.0
2018-May-21 14:29N 51°54' W 008°27'0 0.0
2018-May-21 13:59N 51°54' W 008°27'0 0.0
2018-May-21 13:29N 51°54' W 008°27'0 0.0
2018-May-21 12:59N 51°54' W 008°27'0 0.0
2018-May-21 12:29N 51°54' W 008°27'0 0.0
2018-May-21 11:59N 51°54' W 008°27'0 0.0
2018-May-21 11:29N 51°54' W 008°27'0 0.0
2018-May-21 10:59N 51°54' W 008°27'0 0.0
2018-May-21 10:29N 51°54' W 008°27'0 0.0
2018-May-21 09:59N 51°54' W 008°27'0 0.0
2018-May-21 09:29N 51°54' W 008°27'0 0.0
2018-May-21 08:59N 51°54' W 008°27'0 0.0
2018-May-21 08:29N 51°54' W 008°27'0 0.0
2018-May-21 07:59N 51°54' W 008°27'0 0.0
2018-May-21 07:29N 51°54' W 008°27'0 0.0
2018-May-21 06:59N 51°54' W 008°27'0 0.0
2018-May-21 06:29N 51°54' W 008°27'0 0.0
2018-May-21 05:59N 51°54' W 008°27'0 0.0
2018-May-21 05:29N 51°54' W 008°27'0 0.0
2018-May-21 04:59N 51°54' W 008°27'0 0.0
2018-May-21 04:29N 51°54' W 008°27'0 0.0
2018-May-21 03:59N 51°54' W 008°27'0 0.0
2018-May-21 03:29N 51°54' W 008°27'0 0.0
2018-May-21 02:59N 51°54' W 008°27'0 0.0
2018-May-21 02:29N 51°54' W 008°27'0 0.0
2018-May-21 01:59N 51°54' W 008°27'0 0.0
2018-May-21 01:29N 51°54' W 008°27'0 0.0
2018-May-21 00:59N 51°54' W 008°27'0 0.0
2018-May-21 00:29N 51°54' W 008°27'0 0.0
2018-May-20 23:59N 51°54' W 008°27'0 0.0
2018-May-20 23:29N 51°54' W 008°27'0 0.0
2018-May-20 22:59N 51°54' W 008°27'0 0.0
2018-May-20 22:29N 51°54' W 008°27'0 0.0
2018-May-20 21:59N 51°54' W 008°27'0 0.0
2018-May-20 21:29N 51°54' W 008°27'0 0.0
2018-May-20 20:59N 51°54' W 008°27'0 0.0
2018-May-20 20:29N 51°54' W 008°27'0 0.0
2018-May-20 19:59N 51°54' W 008°27'0 0.0
2018-May-20 19:29N 51°54' W 008°27'0 0.0
2018-May-20 18:59N 51°54' W 008°27'0 0.0
2018-May-20 18:29N 51°54' W 008°27'0 0.0
2018-May-20 17:53N 51°54' W 008°27'0 0.0
2018-May-20 17:29N 51°54' W 008°27'0 0.0
2018-May-20 16:56N 51°54' W 008°27'0 0.0
2018-May-20 16:29N 51°54' W 008°27'0 0.0
2018-May-20 15:59N 51°54' W 008°27'0 0.0
2018-May-20 15:29N 51°54' W 008°27'0 0.0
2018-May-20 14:59N 51°54' W 008°27'0 0.0
2018-May-20 14:29N 51°54' W 008°27'0 0.0
2018-May-20 13:56N 51°54' W 008°27'0 0.0
2018-May-20 13:29N 51°54' W 008°27'0 0.0
2018-May-20 12:53N 51°54' W 008°27'0 0.0
2018-May-20 12:29N 51°54' W 008°27'0 0.0
2018-May-20 11:59N 51°54' W 008°27'0 0.0
2018-May-20 11:23N 51°54' W 008°27'0 0.0
2018-May-20 10:59N 51°54' W 008°27'0 0.0
2018-May-20 10:29N 51°54' W 008°27'0 0.0
2018-May-20 09:59N 51°54' W 008°27'0 0.0
2018-May-20 09:29N 51°54' W 008°27'0 0.0
2018-May-20 09:00N 51°54' W 008°27'1 1.4
2018-May-20 08:30N 51°54' W 008°26'4 7.4
2018-May-20 08:00N 51°53' W 008°21'3 6.5
2018-May-20 07:30N 51°51' W 008°16'3 7.0
2018-May-20 07:00N 51°47' W 008°16'4 7.2
2018-May-20 06:30N 51°44' W 008°13'4 8.5
2018-May-20 06:00N 51°41' W 008°08'4 8.7
2018-May-20 05:30N 51°38' W 008°03'4 8.7
2018-May-20 05:00N 51°35' W 007°58'4 8.8
2018-May-20 04:30N 51°32' W 007°53'5 9.1
2018-May-20 04:00N 51°29' W 007°48'5 9.2
2018-May-20 03:30N 51°26' W 007°43'6 9.3
2018-May-20 02:52N 51°22' W 007°36'3 9.0
2018-May-20 02:30N 51°19' W 007°32'4 8.7
2018-May-20 02:00N 51°16' W 007°27'4 8.9
2018-May-20 01:30N 51°13' W 007°22'23 8.8
2018-May-19 22:55N 50°58' W 006°55'4 9.0
2018-May-19 22:30N 50°56' W 006°50'5 9.0
2018-May-19 21:55N 50°53' W 006°43'96 7.5
2018-May-19 09:09N 49°58' W 004°39'2 9.7
2018-May-19 08:57N 49°58' W 004°36'5 9.6
2018-May-19 08:29N 49°59' W 004°29'5 9.5
2018-May-19 08:00N 49°59' W 004°22'5 9.5
2018-May-19 07:30N 49°60' W 004°15'8 9.7
2018-May-19 06:38N 50°01' W 004°02'210.2
2018-May-19 06:25N 50°01' W 003°59'1010.8
2018-May-19 05:29N 50°03' W 003°43'611.9
2018-May-19 05:00N 50°04' W 003°34'612.4
2018-May-19 04:30N 50°06' W 003°25'612.7
2018-May-19 04:00N 50°07' W 003°16'612.9
2018-May-19 03:30N 50°09' W 003°06'613.0
2018-May-19 03:00N 50°10' W 002°56'2012.1
2018-May-19 01:21N 50°15' W 002°25'28 8.6
2018-May-18 22:05N 50°21' W 001°42'1 7.2
2018-May-18 21:59N 50°21' W 001°41'4 7.5
2018-May-18 21:30N 50°21' W 001°36'4 7.6
2018-May-18 21:00N 50°22' W 001°30'4 8.1
2018-May-18 20:30N 50°23' W 001°24'4 8.7
2018-May-18 20:00N 50°24' W 001°17'4710.2
2018-May-18 15:22N 50°32' W 000°04'410.3
2018-May-18 15:00N 50°33' E 000°02'510.6
2018-May-18 14:30N 50°34' E 000°10'510.2
2018-May-18 14:00N 50°35' E 000°17'510.1
2018-May-18 13:28N 50°37' E 000°26'510.2
2018-May-18 13:00N 50°38' E 000°33'5 9.6
2018-May-18 12:30N 50°41' E 000°39'5 9.2
2018-May-18 12:00N 50°43' E 000°45'5 9.3
2018-May-18 11:30N 50°46' E 000°51'5 9.5
2018-May-18 11:00N 50°49' E 000°57'910.1
2018-May-18 10:10N 50°54' E 001°08'1112.4
2018-May-18 09:15N 51°01' E 001°21'513.8
2018-May-18 08:54N 51°04' E 001°28'514.0
2018-May-18 08:31N 51°08' E 001°34'713.2
2018-May-18 08:00N 51°12' E 001°42'612.3
2018-May-18 07:30N 51°17' E 001°49'611.3
2018-May-18 07:00N 51°21' E 001°54'510.4
2018-May-18 06:30N 51°25' E 001°60'5 9.0
2018-May-18 06:00N 51°24' E 002°07'510.3
2018-May-18 05:29N 51°22' E 002°14'4 9.0
2018-May-18 05:00N 51°22' E 002°21'5 9.3
2018-May-18 04:30N 51°23' E 002°29'5 8.9
2018-May-18 03:57N 51°23' E 002°36'4 8.2
2018-May-18 03:30N 51°22' E 002°42'3 6.6
2018-May-18 02:59N 51°22' E 002°48'4 8.7
2018-May-18 02:30N 51°23' E 002°54'4 8.5
2018-May-18 02:00N 51°24' E 003°01'4 7.8
2018-May-18 01:29N 51°24' E 003°07'  
Track history (hours):
 
Tides and Currents Weather Stations Pressure Air Temp Water Temp Dewpoint Dewpoint Depression Visibility Wind Speed Wind Dir Waves Ship Positions

Dinteldijk

Last reported at 2018-May-28 01:28 UTC. Time now 2018-May-28 01:39 UTC.
Position N 43°36' W 005°42'.

Length 90 m; draft 3.8 m.

Type: Cargo ship. MMSI: 245044000.

Date/timePositionNaut miles runAvg speedWind from/ knotsBaromVisibWave heightAir tempDewpointWater temp
2018-May-28 01:28N 43°36' W 005°42'0 0.0
2018-May-27 19:04N 43°36' W 005°42'0 0.0
2018-May-27 18:52N 43°36' W 005°42'0 0.0
2018-May-27 18:28N 43°36' W 005°42'0 0.0
2018-May-27 17:52N 43°36' W 005°42'0 0.0
2018-May-27 17:28N 43°36' W 005°42'0 0.0
2018-May-27 12:16N 43°36' W 005°42'0 0.0
2018-May-27 11:58N 43°36' W 005°42'0 0.1
2018-May-27 11:28N 43°36' W 005°42'0 0.0
2018-May-27 10:58N 43°36' W 005°42'0 0.0
2018-May-27 10:28N 43°36' W 005°42'0 0.0
2018-May-27 09:58N 43°36' W 005°42'0 0.0
2018-May-27 09:22N 43°36' W 005°42'0 0.0
2018-May-27 08:04N 43°36' W 005°42'0 0.0
2018-May-27 07:52N 43°36' W 005°42'0 0.1
2018-May-27 07:28N 43°36' W 005°42'0 0.0
2018-May-27 06:58N 43°36' W 005°42'0 0.0
2018-May-27 06:16N 43°36' W 005°42'0 0.0
2018-May-27 05:52N 43°36' W 005°42'0 0.0
2018-May-27 05:28N 43°36' W 005°42'0 0.0
2018-May-27 04:22N 43°36' W 005°42'0 0.0
2018-May-27 03:58N 43°36' W 005°42'0 0.1
2018-May-27 03:10N 43°36' W 005°42'0 0.0
2018-May-27 02:58N 43°36' W 005°42'0 0.0
2018-May-27 01:34N 43°36' W 005°42'0 0.0
2018-May-27 01:22N 43°36' W 005°42'0 0.0
2018-May-27 00:52N 43°36' W 005°42'0 0.0
2018-May-26 16:12N 43°36' W 005°42'0 0.1
2018-May-26 15:48N 43°36' W 005°42'0 0.0
2018-May-26 13:12N 43°36' W 005°42'0 0.1
2018-May-26 13:00N 43°36' W 005°42'0 0.0
2018-May-26 12:30N 43°36' W 005°42'0 0.0
2018-May-26 09:18N 43°36' W 005°42'0 0.1
2018-May-26 09:00N 43°36' W 005°42'0 0.0
2018-May-26 07:18N 43°36' W 005°42'0 0.0
2018-May-26 05:18N 43°36' W 005°42'0 0.0
2018-May-26 04:42N 43°36' W 005°42'0 0.1
2018-May-26 04:30N 43°36' W 005°42'0 0.0
2018-May-26 04:00N 43°36' W 005°42'0 0.0
2018-May-26 02:12N 43°36' W 005°42'0 0.0
2018-May-26 02:00N 43°36' W 005°42'0 0.0
2018-May-25 21:06N 43°36' W 005°42'0 0.0
2018-May-25 20:42N 43°36' W 005°42'0 0.0
2018-May-25 18:24N 43°36' W 005°42'0 0.0
2018-May-25 18:00N 43°36' W 005°42'0 0.0
2018-May-25 13:30N 43°36' W 005°42'0 0.0
2018-May-25 12:48N 43°36' W 005°42'0 0.0
2018-May-25 12:18N 43°36' W 005°42'0 0.0
2018-May-25 12:00N 43°36' W 005°42'0 0.1
2018-May-25 11:30N 43°36' W 005°42'0 0.0
2018-May-25 08:30N 43°36' W 005°42'0 0.4
2018-May-25 08:00N 43°36' W 005°42'5 9.5
2018-May-25 07:30N 43°40' W 005°40'36610.9
2018-May-23 21:54N 49°44' W 006°45'2710.3
2018-May-23 19:16N 50°11' W 006°44'311.7
2018-May-23 19:00N 50°14' W 006°45'3211.5
2018-May-23 16:13N 50°45' W 006°56'311.8
2018-May-23 16:00N 50°47' W 006°56'611.7
2018-May-23 15:30N 50°53' W 006°58'510.5
2018-May-23 15:00N 50°58' W 006°59'4 7.2
2018-May-23 14:30N 51°01' W 007°03'4 7.5
2018-May-23 14:00N 51°03' W 007°08'4 7.6
2018-May-23 13:30N 51°06' W 007°12'4 7.5
2018-May-23 13:00N 51°09' W 007°16'4 7.6
2018-May-23 12:30N 51°11' W 007°20'4 7.6
2018-May-23 12:00N 51°14' W 007°25'4 7.5
2018-May-23 11:30N 51°17' W 007°29'4 7.4
2018-May-23 11:00N 51°19' W 007°34'4 7.4
2018-May-23 10:30N 51°22' W 007°38'4 7.5
2018-May-23 10:00N 51°24' W 007°42'4 7.4
2018-May-23 09:30N 51°27' W 007°46'4 7.6
2018-May-23 09:00N 51°30' W 007°51'4 8.0
2018-May-23 08:30N 51°33' W 007°55'5 9.0
2018-May-23 08:00N 51°36' W 007°60'510.5
2018-May-23 07:30N 51°40' W 008°06'5 9.1
2018-May-23 07:00N 51°43' W 008°11'510.5
2018-May-23 06:30N 51°47' W 008°16'4 7.4
2018-May-23 06:00N 51°50' W 008°19'5 9.9
2018-May-23 05:30N 51°54' W 008°24'2 4.1
2018-May-23 05:00N 51°54' W 008°27'0 0.0
2018-May-23 04:29N 51°54' W 008°27'0 0.0
2018-May-23 03:59N 51°54' W 008°27'0 0.0
2018-May-23 03:29N 51°54' W 008°27'0 0.0
2018-May-23 02:59N 51°54' W 008°27'0 0.0
2018-May-23 02:29N 51°54' W 008°27'0 0.0
2018-May-23 01:59N 51°54' W 008°27'0 0.0
2018-May-23 01:29N 51°54' W 008°27'0 0.0
2018-May-23 00:59N 51°54' W 008°27'0 0.0
2018-May-23 00:23N 51°54' W 008°27'0 0.0
2018-May-22 23:59N 51°54' W 008°27'0 0.0
2018-May-22 23:29N 51°54' W 008°27'0 0.0
2018-May-22 22:59N 51°54' W 008°27'0 0.0
2018-May-22 22:29N 51°54' W 008°27'0 0.0
2018-May-22 21:59N 51°54' W 008°27'0 0.0
2018-May-22 21:29N 51°54' W 008°27'0 0.0
2018-May-22 20:59N 51°54' W 008°27'0 0.0
2018-May-22 20:29N 51°54' W 008°27'0 0.0
2018-May-22 19:59N 51°54' W 008°27'0 0.0
2018-May-22 19:29N 51°54' W 008°27'0 0.0
2018-May-22 18:59N 51°54' W 008°27'0 0.0
2018-May-22 18:26N 51°54' W 008°27'0 0.0
2018-May-22 17:59N 51°54' W 008°27'0 0.0
2018-May-22 17:29N 51°54' W 008°27'0 0.0
2018-May-22 16:59N 51°54' W 008°27'0 0.0
2018-May-22 16:29N 51°54' W 008°27'0 0.0
2018-May-22 15:59N 51°54' W 008°27'0 0.0
2018-May-22 15:29N 51°54' W 008°27'0 0.0
2018-May-22 14:53N 51°54' W 008°27'0 0.0
2018-May-22 14:29N 51°54' W 008°27'0 0.0
2018-May-22 13:59N 51°54' W 008°27'0 0.0
2018-May-22 13:29N 51°54' W 008°27'0 0.0
2018-May-22 12:59N 51°54' W 008°27'0 0.0
2018-May-22 12:26N 51°54' W 008°27'0 0.0
2018-May-22 11:59N 51°54' W 008°27'0 0.0
2018-May-22 11:29N 51°54' W 008°27'0 0.0
2018-May-22 10:53N 51°54' W 008°27'0 0.0
2018-May-22 10:29N 51°54' W 008°27'0 0.0
2018-May-22 09:56N 51°54' W 008°27'0 0.0
2018-May-22 09:29N 51°54' W 008°27'0 0.0
2018-May-22 08:59N 51°54' W 008°27'0 0.0
2018-May-22 08:29N 51°54' W 008°27'0 0.0
2018-May-22 07:59N 51°54' W 008°27'0 0.0
2018-May-22 07:29N 51°54' W 008°27'0 0.0
2018-May-22 06:59N 51°54' W 008°27'0 0.0
2018-May-22 06:29N 51°54' W 008°27'0 0.0
2018-May-22 05:59N 51°54' W 008°27'0 0.0
2018-May-22 05:29N 51°54' W 008°27'0 0.0
2018-May-22 04:59N 51°54' W 008°27'0 0.0
2018-May-22 04:29N 51°54' W 008°27'0 0.0
2018-May-22 03:59N 51°54' W 008°27'0 0.0
2018-May-22 03:29N 51°54' W 008°27'0 0.0
2018-May-22 02:59N 51°54' W 008°27'0 0.0
2018-May-22 02:29N 51°54' W 008°27'0 0.0
2018-May-22 01:59N 51°54' W 008°27'0 0.0
2018-May-22 01:29N 51°54' W 008°27'0 0.0
2018-May-22 00:59N 51°54' W 008°27'0 0.0
2018-May-22 00:29N 51°54' W 008°27'0 0.0
2018-May-21 23:59N 51°54' W 008°27'0 0.0
2018-May-21 23:29N 51°54' W 008°27'0 0.0
2018-May-21 22:59N 51°54' W 008°27'0 0.0
2018-May-21 22:29N 51°54' W 008°27'0 0.0
2018-May-21 21:59N 51°54' W 008°27'0 0.0
2018-May-21 21:29N 51°54' W 008°27'0 0.0
2018-May-21 20:59N 51°54' W 008°27'0 0.0
2018-May-21 20:29N 51°54' W 008°27'0 0.0
2018-May-21 19:59N 51°54' W 008°27'0 0.0
2018-May-21 19:29N 51°54' W 008°27'0 0.0
2018-May-21 18:59N 51°54' W 008°27'0 0.0
2018-May-21 18:29N 51°54' W 008°27'0 0.0
2018-May-21 17:59N 51°54' W 008°27'0 0.0
2018-May-21 17:29N 51°54' W 008°27'0 0.0
2018-May-21 16:59N 51°54' W 008°27'0 0.0
2018-May-21 16:29N 51°54' W 008°27'0 0.0
2018-May-21 15:59N 51°54' W 008°27'0 0.0
2018-May-21 15:29N 51°54' W 008°27'0 0.0
2018-May-21 14:59N 51°54' W 008°27'0 0.0
2018-May-21 14:29N 51°54' W 008°27'0 0.0
2018-May-21 13:59N 51°54' W 008°27'0 0.0
2018-May-21 13:29N 51°54' W 008°27'0 0.0
2018-May-21 12:59N 51°54' W 008°27'0 0.0
2018-May-21 12:29N 51°54' W 008°27'0 0.0
2018-May-21 11:59N 51°54' W 008°27'0 0.0
2018-May-21 11:29N 51°54' W 008°27'0 0.0
2018-May-21 10:59N 51°54' W 008°27'0 0.0
2018-May-21 10:29N 51°54' W 008°27'0 0.0
2018-May-21 09:59N 51°54' W 008°27'0 0.0
2018-May-21 09:29N 51°54' W 008°27'0 0.0
2018-May-21 08:59N 51°54' W 008°27'0 0.0
2018-May-21 08:29N 51°54' W 008°27'0 0.0
2018-May-21 07:59N 51°54' W 008°27'0 0.0
2018-May-21 07:29N 51°54' W 008°27'0 0.0
2018-May-21 06:59N 51°54' W 008°27'0 0.0
2018-May-21 06:29N 51°54' W 008°27'0 0.0
2018-May-21 05:59N 51°54' W 008°27'0 0.0
2018-May-21 05:29N 51°54' W 008°27'0 0.0
2018-May-21 04:59N 51°54' W 008°27'0 0.0
2018-May-21 04:29N 51°54' W 008°27'0 0.0
2018-May-21 03:59N 51°54' W 008°27'0 0.0
2018-May-21 03:29N 51°54' W 008°27'0 0.0
2018-May-21 02:59N 51°54' W 008°27'0 0.0
2018-May-21 02:29N 51°54' W 008°27'0 0.0
2018-May-21 01:59N 51°54' W 008°27'0 0.0
2018-May-21 01:29N 51°54' W 008°27'0 0.0
2018-May-21 00:59N 51°54' W 008°27'0 0.0
2018-May-21 00:29N 51°54' W 008°27'0 0.0
2018-May-20 23:59N 51°54' W 008°27'0 0.0
2018-May-20 23:29N 51°54' W 008°27'0 0.0
2018-May-20 22:59N 51°54' W 008°27'0 0.0
2018-May-20 22:29N 51°54' W 008°27'0 0.0
2018-May-20 21:59N 51°54' W 008°27'0 0.0
2018-May-20 21:29N 51°54' W 008°27'0 0.0
2018-May-20 20:59N 51°54' W 008°27'0 0.0
2018-May-20 20:29N 51°54' W 008°27'0 0.0
2018-May-20 19:59N 51°54' W 008°27'0 0.0
2018-May-20 19:29N 51°54' W 008°27'0 0.0
2018-May-20 18:59N 51°54' W 008°27'0 0.0
2018-May-20 18:29N 51°54' W 008°27'0 0.0
2018-May-20 17:53N 51°54' W 008°27'0 0.0
2018-May-20 17:29N 51°54' W 008°27'0 0.0
2018-May-20 16:56N 51°54' W 008°27'0 0.0
2018-May-20 16:29N 51°54' W 008°27'0 0.0
2018-May-20 15:59N 51°54' W 008°27'0 0.0
2018-May-20 15:29N 51°54' W 008°27'0 0.0
2018-May-20 14:59N 51°54' W 008°27'0 0.0
2018-May-20 14:29N 51°54' W 008°27'0 0.0
2018-May-20 13:56N 51°54' W 008°27'0 0.0
2018-May-20 13:29N 51°54' W 008°27'0 0.0
2018-May-20 12:53N 51°54' W 008°27'0 0.0
2018-May-20 12:29N 51°54' W 008°27'0 0.0
2018-May-20 11:59N 51°54' W 008°27'0 0.0
2018-May-20 11:23N 51°54' W 008°27'0 0.0
2018-May-20 10:59N 51°54' W 008°27'0 0.0
2018-May-20 10:29N 51°54' W 008°27'0 0.0
2018-May-20 09:59N 51°54' W 008°27'0 0.0
2018-May-20 09:29N 51°54' W 008°27'0 0.0
2018-May-20 09:00N 51°54' W 008°27'1 1.4
2018-May-20 08:30N 51°54' W 008°26'4 7.4
2018-May-20 08:00N 51°53' W 008°21'3 6.5
2018-May-20 07:30N 51°51' W 008°16'3 7.0
2018-May-20 07:00N 51°47' W 008°16'4 7.2
2018-May-20 06:30N 51°44' W 008°13'4 8.5
2018-May-20 06:00N 51°41' W 008°08'4 8.7
2018-May-20 05:30N 51°38' W 008°03'4 8.7
2018-May-20 05:00N 51°35' W 007°58'4 8.8
2018-May-20 04:30N 51°32' W 007°53'5 9.1
2018-May-20 04:00N 51°29' W 007°48'5 9.2
2018-May-20 03:30N 51°26' W 007°43'6 9.3
2018-May-20 02:52N 51°22' W 007°36'3 9.0
2018-May-20 02:30N 51°19' W 007°32'4 8.7
2018-May-20 02:00N 51°16' W 007°27'4 8.9
2018-May-20 01:30N 51°13' W 007°22'23 8.8
2018-May-19 22:55N 50°58' W 006°55'4 9.0
2018-May-19 22:30N 50°56' W 006°50'5 9.0
2018-May-19 21:55N 50°53' W 006°43'96 7.5
2018-May-19 09:09N 49°58' W 004°39'2 9.7
2018-May-19 08:57N 49°58' W 004°36'5 9.6
2018-May-19 08:29N 49°59' W 004°29'5 9.5
2018-May-19 08:00N 49°59' W 004°22'5 9.5
2018-May-19 07:30N 49°60' W 004°15'8 9.7
2018-May-19 06:38N 50°01' W 004°02'210.2
2018-May-19 06:25N 50°01' W 003°59'1010.8
2018-May-19 05:29N 50°03' W 003°43'611.9
2018-May-19 05:00N 50°04' W 003°34'612.4
2018-May-19 04:30N 50°06' W 003°25'612.7
2018-May-19 04:00N 50°07' W 003°16'612.9
2018-May-19 03:30N 50°09' W 003°06'613.0
2018-May-19 03:00N 50°10' W 002°56'2012.1
2018-May-19 01:21N 50°15' W 002°25'28 8.6
2018-May-18 22:05N 50°21' W 001°42'1 7.2
2018-May-18 21:59N 50°21' W 001°41'4 7.5
2018-May-18 21:30N 50°21' W 001°36'4 7.6
2018-May-18 21:00N 50°22' W 001°30'4 8.1
2018-May-18 20:30N 50°23' W 001°24'4 8.7
2018-May-18 20:00N 50°24' W 001°17'4710.2
2018-May-18 15:22N 50°32' W 000°04'410.3
2018-May-18 15:00N 50°33' E 000°02'510.6
2018-May-18 14:30N 50°34' E 000°10'510.2
2018-May-18 14:00N 50°35' E 000°17'510.1
2018-May-18 13:28N 50°37' E 000°26'510.2
2018-May-18 13:00N 50°38' E 000°33'5 9.6
2018-May-18 12:30N 50°41' E 000°39'5 9.2
2018-May-18 12:00N 50°43' E 000°45'5 9.3
2018-May-18 11:30N 50°46' E 000°51'5 9.5
2018-May-18 11:00N 50°49' E 000°57'910.1
2018-May-18 10:10N 50°54' E 001°08'1112.4
2018-May-18 09:15N 51°01' E 001°21'513.8
2018-May-18 08:54N 51°04' E 001°28'514.0
2018-May-18 08:31N 51°08' E 001°34'713.2
2018-May-18 08:00N 51°12' E 001°42'612.3
2018-May-18 07:30N 51°17' E 001°49'611.3
2018-May-18 07:00N 51°21' E 001°54'510.4
2018-May-18 06:30N 51°25' E 001°60'5 9.0
2018-May-18 06:00N 51°24' E 002°07'510.3
2018-May-18 05:29N 51°22' E 002°14'4 9.0
2018-May-18 05:00N 51°22' E 002°21'5 9.3
2018-May-18 04:30N 51°23' E 002°29'5 8.9
2018-May-18 03:57N 51°23' E 002°36'4 8.2
2018-May-18 03:30N 51°22' E 002°42'3 6.6
2018-May-18 02:59N 51°22' E 002°48'4 8.7
2018-May-18 02:30N 51°23' E 002°54'4 8.5
2018-May-18 02:00N 51°24' E 003°01'4 7.8
2018-May-18 01:29N 51°24' E 003°07'  

Dump ship's entire track history